sensor_id;sensor_type;location;lat;lon;timestamp;P1;durP1;ratioP1;P2;durP2;ratioP2
65853;SDS011;52627;48.838;2.402;2022-12-07T00:01:34;32.90;;;15.30;;
65853;SDS011;52627;48.838;2.402;2022-12-07T00:04:03;35.90;;;16.60;;
65853;SDS011;52627;48.838;2.402;2022-12-07T00:09:06;35.00;;;15.50;;
65853;SDS011;52627;48.838;2.402;2022-12-07T00:11:34;36.00;;;16.50;;
65853;SDS011;52627;48.838;2.402;2022-12-07T00:14:03;33.90;;;15.40;;
65853;SDS011;52627;48.838;2.402;2022-12-07T00:16:33;41.30;;;17.50;;
65853;SDS011;52627;48.838;2.402;2022-12-07T00:19:01;37.90;;;15.90;;
65853;SDS011;52627;48.838;2.402;2022-12-07T00:21:30;34.80;;;16.50;;
65853;SDS011;52627;48.838;2.402;2022-12-07T00:23:59;42.80;;;17.30;;
65853;SDS011;52627;48.838;2.402;2022-12-07T00:26:29;38.80;;;17.30;;
65853;SDS011;52627;48.838;2.402;2022-12-07T00:31:29;35.90;;;17.20;;
65853;SDS011;52627;48.838;2.402;2022-12-07T00:33:59;40.30;;;18.20;;
65853;SDS011;52627;48.838;2.402;2022-12-07T00:36:26;39.00;;;17.90;;
65853;SDS011;52627;48.838;2.402;2022-12-07T00:38:54;38.00;;;17.60;;
65853;SDS011;52627;48.838;2.402;2022-12-07T00:41:26;43.30;;;19.30;;
65853;SDS011;52627;48.838;2.402;2022-12-07T00:43:54;39.40;;;18.70;;
65853;SDS011;52627;48.838;2.402;2022-12-07T00:46:22;42.80;;;19.60;;
65853;SDS011;52627;48.838;2.402;2022-12-07T00:48:51;39.20;;;17.90;;
65853;SDS011;52627;48.838;2.402;2022-12-07T00:51:21;40.40;;;18.80;;
65853;SDS011;52627;48.838;2.402;2022-12-07T00:53:49;34.80;;;18.50;;
65853;SDS011;52627;48.838;2.402;2022-12-07T00:56:21;37.70;;;17.70;;
65853;SDS011;52627;48.838;2.402;2022-12-07T00:58:59;36.40;;;17.30;;
65853;SDS011;52627;48.838;2.402;2022-12-07T01:01:32;35.30;;;17.80;;
65853;SDS011;52627;48.838;2.402;2022-12-07T01:04:01;32.70;;;17.70;;
65853;SDS011;52627;48.838;2.402;2022-12-07T01:06:29;38.10;;;17.80;;
65853;SDS011;52627;48.838;2.402;2022-12-07T01:08:56;37.70;;;16.60;;
65853;SDS011;52627;48.838;2.402;2022-12-07T01:11:25;38.10;;;17.70;;
65853;SDS011;52627;48.838;2.402;2022-12-07T01:13:56;39.50;;;18.00;;
65853;SDS011;52627;48.838;2.402;2022-12-07T01:16:26;31.40;;;16.40;;
65853;SDS011;52627;48.838;2.402;2022-12-07T01:18:56;36.10;;;17.10;;
65853;SDS011;52627;48.838;2.402;2022-12-07T01:21:29;38.00;;;18.00;;
65853;SDS011;52627;48.838;2.402;2022-12-07T01:24:02;32.20;;;16.60;;
65853;SDS011;52627;48.838;2.402;2022-12-07T01:26:29;37.60;;;18.00;;
65853;SDS011;52627;48.838;2.402;2022-12-07T01:28:56;39.90;;;17.50;;
65853;SDS011;52627;48.838;2.402;2022-12-07T01:31:26;33.10;;;16.60;;
65853;SDS011;52627;48.838;2.402;2022-12-07T01:33:55;33.20;;;17.70;;
65853;SDS011;52627;48.838;2.402;2022-12-07T01:36:34;32.10;;;16.10;;
65853;SDS011;52627;48.838;2.402;2022-12-07T01:39:05;32.60;;;15.90;;
65853;SDS011;52627;48.838;2.402;2022-12-07T01:41:36;35.10;;;17.40;;
65853;SDS011;52627;48.838;2.402;2022-12-07T01:46:51;36.20;;;18.30;;
65853;SDS011;52627;48.838;2.402;2022-12-07T01:52:15;35.50;;;17.00;;
65853;SDS011;52627;48.838;2.402;2022-12-07T01:54:44;33.20;;;16.70;;
65853;SDS011;52627;48.838;2.402;2022-12-07T01:57:14;31.20;;;15.70;;
65853;SDS011;52627;48.838;2.402;2022-12-07T01:59:43;33.30;;;16.50;;
65853;SDS011;52627;48.838;2.402;2022-12-07T02:02:20;34.00;;;16.80;;
65853;SDS011;52627;48.838;2.402;2022-12-07T02:04:55;35.40;;;17.90;;
65853;SDS011;52627;48.838;2.402;2022-12-07T02:07:23;37.50;;;17.20;;
65853;SDS011;52627;48.838;2.402;2022-12-07T02:09:51;34.30;;;16.80;;
65853;SDS011;52627;48.838;2.402;2022-12-07T02:12:19;33.70;;;16.90;;
65853;SDS011;52627;48.838;2.402;2022-12-07T02:14:46;30.30;;;16.20;;
65853;SDS011;52627;48.838;2.402;2022-12-07T02:17:32;32.20;;;16.70;;
65853;SDS011;52627;48.838;2.402;2022-12-07T02:23:32;36.20;;;16.70;;
65853;SDS011;52627;48.838;2.402;2022-12-07T02:26:10;34.90;;;16.50;;
65853;SDS011;52627;48.838;2.402;2022-12-07T02:29:12;34.00;;;16.80;;
65853;SDS011;52627;48.838;2.402;2022-12-07T02:31:50;35.50;;;18.20;;
65853;SDS011;52627;48.838;2.402;2022-12-07T02:34:37;32.10;;;17.10;;
65853;SDS011;52627;48.838;2.402;2022-12-07T02:43:12;31.30;;;15.60;;
65853;SDS011;52627;48.838;2.402;2022-12-07T02:45:50;31.60;;;16.30;;
65853;SDS011;52627;48.838;2.402;2022-12-07T02:48:18;35.10;;;16.80;;
65853;SDS011;52627;48.838;2.402;2022-12-07T02:50:52;34.20;;;17.10;;
65853;SDS011;52627;48.838;2.402;2022-12-07T02:53:33;29.40;;;15.10;;
65853;SDS011;52627;48.838;2.402;2022-12-07T03:02:35;34.30;;;17.10;;
65853;SDS011;52627;48.838;2.402;2022-12-07T03:05:19;34.70;;;16.40;;
65853;SDS011;52627;48.838;2.402;2022-12-07T03:08:11;34.20;;;17.00;;
65853;SDS011;52627;48.838;2.402;2022-12-07T03:11:00;34.30;;;16.90;;
65853;SDS011;52627;48.838;2.402;2022-12-07T03:13:51;31.80;;;16.90;;
65853;SDS011;52627;48.838;2.402;2022-12-07T03:16:39;32.10;;;16.30;;
65853;SDS011;52627;48.838;2.402;2022-12-07T03:19:14;32.50;;;16.90;;
65853;SDS011;52627;48.838;2.402;2022-12-07T03:21:50;30.80;;;16.90;;
65853;SDS011;52627;48.838;2.402;2022-12-07T03:24:25;32.50;;;15.80;;
65853;SDS011;52627;48.838;2.402;2022-12-07T03:27:25;31.30;;;15.40;;
65853;SDS011;52627;48.838;2.402;2022-12-07T03:30:10;33.80;;;15.70;;
65853;SDS011;52627;48.838;2.402;2022-12-07T03:32:44;30.70;;;15.00;;
65853;SDS011;52627;48.838;2.402;2022-12-07T03:37:59;35.40;;;17.00;;
65853;SDS011;52627;48.838;2.402;2022-12-07T03:40:39;31.30;;;15.80;;
65853;SDS011;52627;48.838;2.402;2022-12-07T03:43:07;29.20;;;14.80;;
65853;SDS011;52627;48.838;2.402;2022-12-07T03:45:43;31.20;;;15.20;;
65853;SDS011;52627;48.838;2.402;2022-12-07T03:48:27;30.70;;;15.50;;
65853;SDS011;52627;48.838;2.402;2022-12-07T03:53:53;29.70;;;14.70;;
65853;SDS011;52627;48.838;2.402;2022-12-07T03:56:22;31.40;;;14.80;;
65853;SDS011;52627;48.838;2.402;2022-12-07T03:58:50;32.10;;;15.70;;
65853;SDS011;52627;48.838;2.402;2022-12-07T04:01:18;31.90;;;15.10;;
65853;SDS011;52627;48.838;2.402;2022-12-07T04:03:45;27.10;;;14.80;;
65853;SDS011;52627;48.838;2.402;2022-12-07T04:06:12;30.90;;;15.30;;
65853;SDS011;52627;48.838;2.402;2022-12-07T04:08:39;26.40;;;14.00;;
65853;SDS011;52627;48.838;2.402;2022-12-07T04:11:06;27.00;;;14.80;;
65853;SDS011;52627;48.838;2.402;2022-12-07T04:13:32;29.30;;;14.30;;
65853;SDS011;52627;48.838;2.402;2022-12-07T04:16:19;27.10;;;13.60;;
65853;SDS011;52627;48.838;2.402;2022-12-07T04:18:46;27.50;;;14.30;;
65853;SDS011;52627;48.838;2.402;2022-12-07T04:21:13;26.90;;;13.50;;
65853;SDS011;52627;48.838;2.402;2022-12-07T04:23:39;29.40;;;14.70;;
65853;SDS011;52627;48.838;2.402;2022-12-07T04:26:06;28.60;;;14.80;;
65853;SDS011;52627;48.838;2.402;2022-12-07T04:28:33;28.60;;;13.90;;
65853;SDS011;52627;48.838;2.402;2022-12-07T04:31:00;25.90;;;13.90;;
65853;SDS011;52627;48.838;2.402;2022-12-07T04:33:26;25.50;;;13.90;;
65853;SDS011;52627;48.838;2.402;2022-12-07T04:35:53;25.30;;;13.00;;
65853;SDS011;52627;48.838;2.402;2022-12-07T04:38:20;23.30;;;11.90;;
65853;SDS011;52627;48.838;2.402;2022-12-07T04:40:47;24.60;;;12.90;;
65853;SDS011;52627;48.838;2.402;2022-12-07T04:43:13;28.60;;;13.60;;
65853;SDS011;52627;48.838;2.402;2022-12-07T04:45:45;26.50;;;13.30;;
65853;SDS011;52627;48.838;2.402;2022-12-07T04:48:14;24.20;;;12.10;;
65853;SDS011;52627;48.838;2.402;2022-12-07T04:50:41;25.00;;;12.70;;
65853;SDS011;52627;48.838;2.402;2022-12-07T04:53:12;25.20;;;12.70;;
65853;SDS011;52627;48.838;2.402;2022-12-07T04:55:39;20.70;;;12.00;;
65853;SDS011;52627;48.838;2.402;2022-12-07T04:58:05;22.70;;;11.90;;
65853;SDS011;52627;48.838;2.402;2022-12-07T05:00:32;23.00;;;11.80;;
65853;SDS011;52627;48.838;2.402;2022-12-07T05:02:59;24.30;;;12.30;;
65853;SDS011;52627;48.838;2.402;2022-12-07T05:05:26;21.40;;;11.10;;
65853;SDS011;52627;48.838;2.402;2022-12-07T05:07:53;21.70;;;12.00;;
65853;SDS011;52627;48.838;2.402;2022-12-07T05:10:20;22.00;;;11.70;;
65853;SDS011;52627;48.838;2.402;2022-12-07T05:12:47;19.90;;;10.70;;
65853;SDS011;52627;48.838;2.402;2022-12-07T05:15:14;22.50;;;10.70;;
65853;SDS011;52627;48.838;2.402;2022-12-07T05:17:41;19.20;;;10.30;;
65853;SDS011;52627;48.838;2.402;2022-12-07T05:20:09;21.30;;;10.60;;
65853;SDS011;52627;48.838;2.402;2022-12-07T05:22:36;20.50;;;10.60;;
65853;SDS011;52627;48.838;2.402;2022-12-07T05:25:03;21.90;;;11.00;;
65853;SDS011;52627;48.838;2.402;2022-12-07T05:27:30;22.10;;;11.50;;
65853;SDS011;52627;48.838;2.402;2022-12-07T05:29:56;20.40;;;11.40;;
65853;SDS011;52627;48.838;2.402;2022-12-07T05:32:23;21.20;;;10.70;;
65853;SDS011;52627;48.838;2.402;2022-12-07T05:34:50;22.10;;;11.50;;
65853;SDS011;52627;48.838;2.402;2022-12-07T05:37:16;24.10;;;11.50;;
65853;SDS011;52627;48.838;2.402;2022-12-07T05:39:43;22.60;;;11.30;;
65853;SDS011;52627;48.838;2.402;2022-12-07T05:42:10;22.20;;;10.90;;
65853;SDS011;52627;48.838;2.402;2022-12-07T05:44:41;21.10;;;11.20;;
65853;SDS011;52627;48.838;2.402;2022-12-07T05:47:13;19.80;;;10.80;;
65853;SDS011;52627;48.838;2.402;2022-12-07T05:49:40;16.60;;;9.80;;
65853;SDS011;52627;48.838;2.402;2022-12-07T05:52:07;22.90;;;11.00;;
65853;SDS011;52627;48.838;2.402;2022-12-07T05:54:34;19.80;;;10.20;;
65853;SDS011;52627;48.838;2.402;2022-12-07T05:57:01;20.20;;;10.40;;
65853;SDS011;52627;48.838;2.402;2022-12-07T05:59:27;19.90;;;10.10;;
65853;SDS011;52627;48.838;2.402;2022-12-07T06:02:01;21.40;;;11.20;;
65853;SDS011;52627;48.838;2.402;2022-12-07T06:04:32;20.80;;;10.50;;
65853;SDS011;52627;48.838;2.402;2022-12-07T06:07:00;18.90;;;10.50;;
65853;SDS011;52627;48.838;2.402;2022-12-07T06:09:28;19.80;;;11.00;;
65853;SDS011;52627;48.838;2.402;2022-12-07T06:11:56;20.70;;;10.90;;
65853;SDS011;52627;48.838;2.402;2022-12-07T06:14:42;23.40;;;10.50;;
65853;SDS011;52627;48.838;2.402;2022-12-07T06:17:10;24.80;;;12.30;;
65853;SDS011;52627;48.838;2.402;2022-12-07T06:19:39;18.50;;;11.00;;
65853;SDS011;52627;48.838;2.402;2022-12-07T06:22:06;20.30;;;10.90;;
65853;SDS011;52627;48.838;2.402;2022-12-07T06:24:33;21.50;;;11.00;;
65853;SDS011;52627;48.838;2.402;2022-12-07T06:27:00;20.00;;;10.10;;
65853;SDS011;52627;48.838;2.402;2022-12-07T06:29:27;21.50;;;10.50;;
65853;SDS011;52627;48.838;2.402;2022-12-07T06:31:54;19.20;;;10.80;;
65853;SDS011;52627;48.838;2.402;2022-12-07T06:34:22;21.40;;;10.70;;
65853;SDS011;52627;48.838;2.402;2022-12-07T06:36:50;19.60;;;10.90;;
65853;SDS011;52627;48.838;2.402;2022-12-07T06:39:19;19.20;;;11.10;;
65853;SDS011;52627;48.838;2.402;2022-12-07T06:41:46;20.10;;;10.80;;
65853;SDS011;52627;48.838;2.402;2022-12-07T06:44:13;22.60;;;11.70;;
65853;SDS011;52627;48.838;2.402;2022-12-07T06:46:40;19.20;;;10.60;;
65853;SDS011;52627;48.838;2.402;2022-12-07T06:49:07;18.80;;;11.20;;
65853;SDS011;52627;48.838;2.402;2022-12-07T06:51:34;19.50;;;10.90;;
65853;SDS011;52627;48.838;2.402;2022-12-07T06:54:08;19.20;;;10.70;;
65853;SDS011;52627;48.838;2.402;2022-12-07T06:56:36;18.70;;;10.30;;
65853;SDS011;52627;48.838;2.402;2022-12-07T06:59:04;20.60;;;11.70;;
65853;SDS011;52627;48.838;2.402;2022-12-07T07:01:34;20.60;;;11.00;;
65853;SDS011;52627;48.838;2.402;2022-12-07T07:04:02;18.50;;;11.30;;
65853;SDS011;52627;48.838;2.402;2022-12-07T07:06:28;18.70;;;10.70;;
65853;SDS011;52627;48.838;2.402;2022-12-07T07:08:55;19.20;;;11.60;;
65853;SDS011;52627;48.838;2.402;2022-12-07T07:11:22;21.10;;;10.80;;
65853;SDS011;52627;48.838;2.402;2022-12-07T07:13:48;24.70;;;11.20;;
65853;SDS011;52627;48.838;2.402;2022-12-07T07:16:15;21.70;;;10.80;;
65853;SDS011;52627;48.838;2.402;2022-12-07T07:18:42;17.30;;;10.10;;
65853;SDS011;52627;48.838;2.402;2022-12-07T07:21:09;17.90;;;10.20;;
65853;SDS011;52627;48.838;2.402;2022-12-07T07:23:36;22.80;;;11.10;;
65853;SDS011;52627;48.838;2.402;2022-12-07T07:26:02;20.00;;;11.30;;
65853;SDS011;52627;48.838;2.402;2022-12-07T07:28:29;19.00;;;10.00;;
65853;SDS011;52627;48.838;2.402;2022-12-07T07:30:56;19.90;;;11.30;;
65853;SDS011;52627;48.838;2.402;2022-12-07T07:33:23;22.70;;;12.00;;
65853;SDS011;52627;48.838;2.402;2022-12-07T07:35:49;19.30;;;10.90;;
65853;SDS011;52627;48.838;2.402;2022-12-07T07:38:16;21.90;;;12.30;;
65853;SDS011;52627;48.838;2.402;2022-12-07T07:40:43;22.00;;;10.70;;
65853;SDS011;52627;48.838;2.402;2022-12-07T07:43:10;20.20;;;10.90;;
65853;SDS011;52627;48.838;2.402;2022-12-07T07:45:36;21.70;;;11.40;;
65853;SDS011;52627;48.838;2.402;2022-12-07T07:48:03;18.90;;;10.70;;
65853;SDS011;52627;48.838;2.402;2022-12-07T07:50:30;19.10;;;10.80;;
65853;SDS011;52627;48.838;2.402;2022-12-07T07:52:57;18.00;;;10.90;;
65853;SDS011;52627;48.838;2.402;2022-12-07T07:55:24;18.20;;;10.70;;
65853;SDS011;52627;48.838;2.402;2022-12-07T07:57:51;20.20;;;10.70;;
65853;SDS011;52627;48.838;2.402;2022-12-07T08:00:22;19.20;;;11.00;;
65853;SDS011;52627;48.838;2.402;2022-12-07T08:02:49;21.40;;;10.30;;
65853;SDS011;52627;48.838;2.402;2022-12-07T08:05:16;19.30;;;10.40;;
65853;SDS011;52627;48.838;2.402;2022-12-07T08:07:43;22.00;;;11.60;;
65853;SDS011;52627;48.838;2.402;2022-12-07T08:10:12;20.00;;;10.60;;
65853;SDS011;52627;48.838;2.402;2022-12-07T08:12:42;20.50;;;11.50;;
65853;SDS011;52627;48.838;2.402;2022-12-07T08:15:29;20.50;;;11.80;;
65853;SDS011;52627;48.838;2.402;2022-12-07T08:17:57;18.90;;;10.60;;
65853;SDS011;52627;48.838;2.402;2022-12-07T08:20:24;19.20;;;10.90;;
65853;SDS011;52627;48.838;2.402;2022-12-07T08:22:51;26.00;;;12.30;;
65853;SDS011;52627;48.838;2.402;2022-12-07T08:25:18;19.70;;;10.90;;
65853;SDS011;52627;48.838;2.402;2022-12-07T08:27:46;18.30;;;10.70;;
65853;SDS011;52627;48.838;2.402;2022-12-07T08:30:13;18.70;;;11.00;;
65853;SDS011;52627;48.838;2.402;2022-12-07T08:32:40;18.80;;;10.00;;
65853;SDS011;52627;48.838;2.402;2022-12-07T08:35:07;20.00;;;10.20;;
65853;SDS011;52627;48.838;2.402;2022-12-07T08:37:35;18.60;;;10.20;;
65853;SDS011;52627;48.838;2.402;2022-12-07T08:40:04;18.80;;;10.20;;
65853;SDS011;52627;48.838;2.402;2022-12-07T08:42:32;18.80;;;9.90;;
65853;SDS011;52627;48.838;2.402;2022-12-07T08:45:12;20.60;;;10.30;;
65853;SDS011;52627;48.838;2.402;2022-12-07T08:47:51;20.60;;;10.90;;
65853;SDS011;52627;48.838;2.402;2022-12-07T08:50:38;18.70;;;10.50;;
65853;SDS011;52627;48.838;2.402;2022-12-07T08:53:10;16.50;;;10.40;;
65853;SDS011;52627;48.838;2.402;2022-12-07T08:55:37;19.60;;;9.60;;
65853;SDS011;52627;48.838;2.402;2022-12-07T08:58:04;19.40;;;10.50;;
65853;SDS011;52627;48.838;2.402;2022-12-07T09:00:30;23.80;;;11.60;;
65853;SDS011;52627;48.838;2.402;2022-12-07T09:02:57;22.90;;;11.00;;
65853;SDS011;52627;48.838;2.402;2022-12-07T09:05:24;18.00;;;10.70;;
65853;SDS011;52627;48.838;2.402;2022-12-07T09:07:54;19.40;;;11.00;;
65853;SDS011;52627;48.838;2.402;2022-12-07T09:10:22;16.70;;;10.80;;
65853;SDS011;52627;48.838;2.402;2022-12-07T09:12:49;19.90;;;11.50;;
65853;SDS011;52627;48.838;2.402;2022-12-07T09:15:16;18.70;;;10.30;;
65853;SDS011;52627;48.838;2.402;2022-12-07T09:17:43;17.50;;;9.70;;
65853;SDS011;52627;48.838;2.402;2022-12-07T09:20:11;16.60;;;9.40;;
65853;SDS011;52627;48.838;2.402;2022-12-07T09:22:38;18.50;;;10.30;;
65853;SDS011;52627;48.838;2.402;2022-12-07T09:25:05;17.10;;;10.10;;
65853;SDS011;52627;48.838;2.402;2022-12-07T09:27:32;18.60;;;10.00;;
65853;SDS011;52627;48.838;2.402;2022-12-07T09:29:59;19.00;;;9.60;;
65853;SDS011;52627;48.838;2.402;2022-12-07T09:32:26;19.60;;;9.80;;
65853;SDS011;52627;48.838;2.402;2022-12-07T09:34:53;17.00;;;9.40;;
65853;SDS011;52627;48.838;2.402;2022-12-07T09:37:20;15.70;;;9.00;;
65853;SDS011;52627;48.838;2.402;2022-12-07T09:39:47;18.70;;;8.90;;
65853;SDS011;52627;48.838;2.402;2022-12-07T09:42:37;15.60;;;9.70;;
65853;SDS011;52627;48.838;2.402;2022-12-07T09:45:07;15.60;;;9.20;;
65853;SDS011;52627;48.838;2.402;2022-12-07T09:47:38;18.90;;;10.10;;
65853;SDS011;52627;48.838;2.402;2022-12-07T09:50:14;18.90;;;10.50;;
65853;SDS011;52627;48.838;2.402;2022-12-07T09:52:44;19.00;;;10.70;;
65853;SDS011;52627;48.838;2.402;2022-12-07T09:55:15;17.40;;;9.80;;
65853;SDS011;52627;48.838;2.402;2022-12-07T10:00:14;17.60;;;9.40;;
65853;SDS011;52627;48.838;2.402;2022-12-07T10:02:50;17.30;;;9.40;;
65853;SDS011;52627;48.838;2.402;2022-12-07T10:05:26;15.50;;;8.20;;
65853;SDS011;52627;48.838;2.402;2022-12-07T10:07:55;15.40;;;9.90;;
65853;SDS011;52627;48.838;2.402;2022-12-07T10:10:25;16.90;;;9.90;;
65853;SDS011;52627;48.838;2.402;2022-12-07T10:12:57;16.30;;;9.90;;
65853;SDS011;52627;48.838;2.402;2022-12-07T10:15:50;14.90;;;9.40;;
65853;SDS011;52627;48.838;2.402;2022-12-07T10:21:19;17.60;;;9.40;;
65853;SDS011;52627;48.838;2.402;2022-12-07T10:29:29;16.10;;;9.60;;
65853;SDS011;52627;48.838;2.402;2022-12-07T10:32:25;16.40;;;9.90;;
65853;SDS011;52627;48.838;2.402;2022-12-07T10:37:51;17.30;;;9.90;;
65853;SDS011;52627;48.838;2.402;2022-12-07T10:46:08;15.80;;;9.80;;
65853;SDS011;52627;48.838;2.402;2022-12-07T10:49:08;15.10;;;10.10;;
65853;SDS011;52627;48.838;2.402;2022-12-07T10:52:01;20.10;;;9.70;;
65853;SDS011;52627;48.838;2.402;2022-12-07T10:55:06;17.00;;;9.60;;
65853;SDS011;52627;48.838;2.402;2022-12-07T10:58:23;16.90;;;9.20;;
65853;SDS011;52627;48.838;2.402;2022-12-07T11:01:12;17.50;;;9.30;;
65853;SDS011;52627;48.838;2.402;2022-12-07T11:07:05;16.60;;;9.60;;
65853;SDS011;52627;48.838;2.402;2022-12-07T11:23:41;15.70;;;7.80;;
65853;SDS011;52627;48.838;2.402;2022-12-07T11:32:01;19.20;;;8.40;;
65853;SDS011;52627;48.838;2.402;2022-12-07T11:34:42;15.50;;;8.70;;
65853;SDS011;52627;48.838;2.402;2022-12-07T11:37:21;13.90;;;8.70;;
65853;SDS011;52627;48.838;2.402;2022-12-07T11:40:05;13.40;;;7.90;;
65853;SDS011;52627;48.838;2.402;2022-12-07T11:42:51;14.30;;;8.10;;
65853;SDS011;52627;48.838;2.402;2022-12-07T11:45:23;16.20;;;8.40;;
65853;SDS011;52627;48.838;2.402;2022-12-07T11:47:58;15.10;;;8.10;;
65853;SDS011;52627;48.838;2.402;2022-12-07T11:50:41;14.00;;;7.90;;
65853;SDS011;52627;48.838;2.402;2022-12-07T11:53:17;15.60;;;8.10;;
65853;SDS011;52627;48.838;2.402;2022-12-07T12:03:47;13.70;;;7.70;;
65853;SDS011;52627;48.838;2.402;2022-12-07T12:06:20;15.80;;;8.50;;
65853;SDS011;52627;48.838;2.402;2022-12-07T12:08:53;19.40;;;9.10;;
65853;SDS011;52627;48.838;2.402;2022-12-07T12:15:36;17.80;;;9.30;;
65853;SDS011;52627;48.838;2.402;2022-12-07T12:18:31;13.50;;;8.60;;
65853;SDS011;52627;48.838;2.402;2022-12-07T12:21:09;17.60;;;9.60;;
65853;SDS011;52627;48.838;2.402;2022-12-07T12:23:41;17.10;;;10.40;;
65853;SDS011;52627;48.838;2.402;2022-12-07T12:26:20;16.40;;;9.00;;
65853;SDS011;52627;48.838;2.402;2022-12-07T12:28:57;17.00;;;9.50;;
65853;SDS011;52627;48.838;2.402;2022-12-07T12:36:56;14.00;;;8.30;;
65853;SDS011;52627;48.838;2.402;2022-12-07T12:39:23;17.30;;;9.60;;
65853;SDS011;52627;48.838;2.402;2022-12-07T12:41:51;16.90;;;9.90;;
65853;SDS011;52627;48.838;2.402;2022-12-07T12:46:53;20.80;;;10.40;;
65853;SDS011;52627;48.838;2.402;2022-12-07T12:49:33;17.70;;;10.00;;
65853;SDS011;52627;48.838;2.402;2022-12-07T12:57:37;18.70;;;9.30;;
65853;SDS011;52627;48.838;2.402;2022-12-07T13:00:23;16.40;;;9.20;;
65853;SDS011;52627;48.838;2.402;2022-12-07T13:02:55;15.90;;;8.70;;
65853;SDS011;52627;48.838;2.402;2022-12-07T13:05:26;16.60;;;8.70;;
65853;SDS011;52627;48.838;2.402;2022-12-07T13:08:18;16.00;;;8.10;;
65853;SDS011;52627;48.838;2.402;2022-12-07T13:10:48;14.90;;;8.50;;
65853;SDS011;52627;48.838;2.402;2022-12-07T13:15:44;11.40;;;7.20;;
65853;SDS011;52627;48.838;2.402;2022-12-07T13:20:58;13.20;;;7.60;;
65853;SDS011;52627;48.838;2.402;2022-12-07T13:26:21;12.90;;;8.00;;
65853;SDS011;52627;48.838;2.402;2022-12-07T13:31:39;13.80;;;7.80;;
65853;SDS011;52627;48.838;2.402;2022-12-07T13:34:30;11.90;;;6.90;;
65853;SDS011;52627;48.838;2.402;2022-12-07T13:36:59;12.00;;;7.40;;
65853;SDS011;52627;48.838;2.402;2022-12-07T13:39:27;11.30;;;6.10;;
65853;SDS011;52627;48.838;2.402;2022-12-07T13:41:58;13.10;;;7.10;;
65853;SDS011;52627;48.838;2.402;2022-12-07T13:47:04;12.40;;;6.70;;
65853;SDS011;52627;48.838;2.402;2022-12-07T13:49:46;12.30;;;6.80;;
65853;SDS011;52627;48.838;2.402;2022-12-07T13:52:23;19.70;;;7.20;;
65853;SDS011;52627;48.838;2.402;2022-12-07T13:54:59;10.00;;;6.70;;
65853;SDS011;52627;48.838;2.402;2022-12-07T13:57:29;12.00;;;6.50;;
65853;SDS011;52627;48.838;2.402;2022-12-07T13:59:57;11.10;;;6.80;;
65853;SDS011;52627;48.838;2.402;2022-12-07T14:02:29;9.40;;;5.60;;
65853;SDS011;52627;48.838;2.402;2022-12-07T14:05:34;12.10;;;6.30;;
65853;SDS011;52627;48.838;2.402;2022-12-07T14:08:22;11.30;;;6.70;;
65853;SDS011;52627;48.838;2.402;2022-12-07T14:13:32;14.70;;;8.20;;
65853;SDS011;52627;48.838;2.402;2022-12-07T14:19:00;14.00;;;8.40;;
65853;SDS011;52627;48.838;2.402;2022-12-07T14:26:48;15.10;;;8.80;;
65853;SDS011;52627;48.838;2.402;2022-12-07T14:29:37;18.50;;;9.00;;
65853;SDS011;52627;48.838;2.402;2022-12-07T14:32:18;13.00;;;7.90;;
65853;SDS011;52627;48.838;2.402;2022-12-07T14:37:26;15.30;;;7.10;;
65853;SDS011;52627;48.838;2.402;2022-12-07T14:39:55;11.40;;;7.40;;
65853;SDS011;52627;48.838;2.402;2022-12-07T14:42:23;14.20;;;6.90;;
65853;SDS011;52627;48.838;2.402;2022-12-07T14:44:55;10.20;;;5.90;;
65853;SDS011;52627;48.838;2.402;2022-12-07T14:47:24;12.30;;;5.30;;
65853;SDS011;52627;48.838;2.402;2022-12-07T14:50:13;9.00;;;4.40;;
65853;SDS011;52627;48.838;2.402;2022-12-07T14:52:44;8.30;;;4.60;;
65853;SDS011;52627;48.838;2.402;2022-12-07T14:55:33;8.10;;;4.40;;
65853;SDS011;52627;48.838;2.402;2022-12-07T14:58:00;10.30;;;4.60;;
65853;SDS011;52627;48.838;2.402;2022-12-07T15:00:28;9.40;;;4.50;;
65853;SDS011;52627;48.838;2.402;2022-12-07T15:02:56;12.40;;;5.10;;
65853;SDS011;52627;48.838;2.402;2022-12-07T15:05:23;9.30;;;4.80;;
65853;SDS011;52627;48.838;2.402;2022-12-07T15:07:50;10.40;;;4.40;;
65853;SDS011;52627;48.838;2.402;2022-12-07T15:10:27;8.30;;;5.20;;
65853;SDS011;52627;48.838;2.402;2022-12-07T15:12:59;8.20;;;4.90;;
65853;SDS011;52627;48.838;2.402;2022-12-07T15:15:46;11.40;;;5.20;;
65853;SDS011;52627;48.838;2.402;2022-12-07T15:18:15;11.50;;;5.60;;
65853;SDS011;52627;48.838;2.402;2022-12-07T15:20:42;10.90;;;5.80;;
65853;SDS011;52627;48.838;2.402;2022-12-07T15:23:10;14.30;;;6.20;;
65853;SDS011;52627;48.838;2.402;2022-12-07T15:25:41;11.10;;;6.10;;
65853;SDS011;52627;48.838;2.402;2022-12-07T15:28:09;14.00;;;6.90;;
65853;SDS011;52627;48.838;2.402;2022-12-07T15:30:39;13.40;;;7.10;;
65853;SDS011;52627;48.838;2.402;2022-12-07T15:33:09;13.00;;;6.50;;
65853;SDS011;52627;48.838;2.402;2022-12-07T15:35:41;12.80;;;6.50;;
65853;SDS011;52627;48.838;2.402;2022-12-07T15:38:08;11.40;;;6.30;;
65853;SDS011;52627;48.838;2.402;2022-12-07T15:40:35;16.80;;;6.90;;
65853;SDS011;52627;48.838;2.402;2022-12-07T15:43:03;14.00;;;7.20;;
65853;SDS011;52627;48.838;2.402;2022-12-07T15:45:30;13.10;;;6.80;;
65853;SDS011;52627;48.838;2.402;2022-12-07T15:47:56;12.40;;;7.20;;
65853;SDS011;52627;48.838;2.402;2022-12-07T15:50:43;16.00;;;7.20;;
65853;SDS011;52627;48.838;2.402;2022-12-07T15:53:10;9.70;;;6.60;;
65853;SDS011;52627;48.838;2.402;2022-12-07T15:55:38;15.10;;;6.70;;
65853;SDS011;52627;48.838;2.402;2022-12-07T15:58:06;15.40;;;7.10;;
65853;SDS011;52627;48.838;2.402;2022-12-07T16:00:33;16.70;;;7.30;;
65853;SDS011;52627;48.838;2.402;2022-12-07T16:03:00;10.00;;;6.30;;
65853;SDS011;52627;48.838;2.402;2022-12-07T16:05:27;11.40;;;5.90;;
65853;SDS011;52627;48.838;2.402;2022-12-07T16:07:53;11.50;;;6.80;;
65853;SDS011;52627;48.838;2.402;2022-12-07T16:10:20;12.30;;;6.90;;
65853;SDS011;52627;48.838;2.402;2022-12-07T16:12:47;12.50;;;6.50;;
65853;SDS011;52627;48.838;2.402;2022-12-07T16:15:14;12.60;;;6.10;;
65853;SDS011;52627;48.838;2.402;2022-12-07T16:17:40;11.70;;;6.10;;
65853;SDS011;52627;48.838;2.402;2022-12-07T16:20:07;10.90;;;6.70;;
65853;SDS011;52627;48.838;2.402;2022-12-07T16:22:34;12.80;;;6.60;;
65853;SDS011;52627;48.838;2.402;2022-12-07T16:25:01;11.20;;;6.20;;
65853;SDS011;52627;48.838;2.402;2022-12-07T16:27:28;13.00;;;6.90;;
65853;SDS011;52627;48.838;2.402;2022-12-07T16:29:55;10.90;;;6.10;;
65853;SDS011;52627;48.838;2.402;2022-12-07T16:32:22;12.10;;;6.60;;
65853;SDS011;52627;48.838;2.402;2022-12-07T16:34:49;12.80;;;6.20;;
65853;SDS011;52627;48.838;2.402;2022-12-07T16:37:16;11.00;;;6.30;;
65853;SDS011;52627;48.838;2.402;2022-12-07T16:39:42;12.40;;;6.80;;
65853;SDS011;52627;48.838;2.402;2022-12-07T16:42:09;12.30;;;7.40;;
65853;SDS011;52627;48.838;2.402;2022-12-07T16:44:36;13.70;;;6.80;;
65853;SDS011;52627;48.838;2.402;2022-12-07T16:47:02;10.90;;;6.50;;
65853;SDS011;52627;48.838;2.402;2022-12-07T16:49:29;11.10;;;6.40;;
65853;SDS011;52627;48.838;2.402;2022-12-07T16:51:56;13.20;;;7.20;;
65853;SDS011;52627;48.838;2.402;2022-12-07T16:54:43;11.60;;;6.50;;
65853;SDS011;52627;48.838;2.402;2022-12-07T16:57:10;11.30;;;5.80;;
65853;SDS011;52627;48.838;2.402;2022-12-07T16:59:42;15.50;;;6.80;;